• Join FlightAware (Why Join?)
  • Login
  • US Flag 
06:11AM EST


 

Airport Tracker/Info


-or-


 

Live Flight TrackerFlight Track Log ✈ THY1074 ✈ 11-Nov-2013 ✈ LATI / TIA - LTBA / IST

Flight Track Log - Related Links

Times and Time Zones

All times are in EST time to prevent confusion due to time zone crossing. See the THY1074 flight status page for this flight to view local times or setup timezone preferences in your user account.

Time Position Orientation Groundspeed Altitude Reporting Facility
EST Latitude Longitude Course Direction KTS MPH feet Rate Location/Type
03:33AM 41.3940 21.1358 91° East  Level Estimated
03:34AM 41.3913 21.2644 92° East  Level Estimated
03:35AM 41.3884 21.3930 92° East  Level Estimated
03:36AM 41.3854 21.5216 92° East  Level Estimated
03:37AM 41.3822 21.6502 92° East  Level Estimated
03:38AM 41.3789 21.7787 92° East  Level Estimated
03:39AM 41.3754 21.9073 92° East  Level Estimated
03:40AM 41.3718 22.0358 92° East  Level Estimated
03:41AM 41.3681 22.1644 92° East  Level Estimated
03:42AM 41.3642 22.2929 92° East  Level Estimated
03:43AM 41.3601 22.4213 92° East  Level Estimated
03:44AM 41.3560 22.5498 92° East  Level Estimated
03:45AM 41.3517 22.6783 93° East  Level Estimated
03:46AM 41.3472 22.8067 93° East  Level Estimated
03:47AM 41.3426 22.9351 93° East  Level Estimated
03:48AM 41.3378 23.0635 93° East  Level Estimated
03:49AM 41.3330 23.1919 93° East  Level Estimated
03:50AM 41.3279 23.3203 93° East  Level Estimated
03:51AM 41.3228 23.4486 93° East  Level Estimated
03:52AM 41.3174 23.5769 93° East  Level Estimated
03:53AM 41.3120 23.7052 93° East  Level Estimated
03:54AM 41.3064 23.8335 93° East  Level Estimated
03:55AM 41.3006 23.9618 93° East  Level Estimated
03:56AM 41.2948 24.0900 93° East  Level Estimated
03:57AM 41.2887 24.2182 94° East  Level Estimated
03:58AM 41.2826 24.3464 94° East  Level Estimated
03:59AM 41.2762 24.4746 94° East  Level Estimated
04:00AM 41.2698 24.6027 94° East  Level Estimated
04:01AM 41.2632 24.7308 94° East  Level Estimated
04:02AM 41.2565 24.8589 94° East  Level Estimated
04:03AM 41.2496 24.9869 94° East  Level Estimated
04:04AM 41.2425 25.1150 94° East  Level Estimated
04:05AM 41.2354 25.2430 94° East  Level Estimated
04:06AM 41.2281 25.3709 94° East  Level Estimated
04:07AM 41.2206 25.4989 94° East  Level Estimated
04:08AM 41.2130 25.6268 94° East  Level Estimated
04:09AM 41.2053 25.7547 95° East  Level Estimated
04:10AM 41.1974 25.8826 95° East  Level Estimated
04:11AM 41.1894 26.0104 95° East  Level Estimated
04:12AM 41.1813 26.1382 95° East  Level Estimated
04:13AM 41.1730 26.2659 95° East  Level Estimated
04:14AM 41.1645 26.3937 95° East  Level Estimated
04:15AM 41.1560 26.5214 95° East  Level Estimated
04:16AM 41.1472 26.6490 95° East  Level Estimated
04:17AM 41.1384 26.7767 95° East  Level Estimated
04:18AM 41.1294 26.9042 95° East  Level Estimated
04:19AM 41.1202 27.0318 95° East  Level Estimated
04:20AM 41.1110 27.1593 95° East  Level Estimated
04:21AM 41.1015 27.2868 96° East  Level Estimated
04:22AM 41.0920 27.4143 96° East  Level Estimated
04:23AM 41.0823 27.5417 96° East  Level Estimated
04:24AM 41.0724 27.6691 96° East  Level Estimated
04:25AM 41.0625 27.7964 96° East  Level Estimated
04:26AM 41.0523 27.9237 96° East  Level Estimated
04:27AM 41.0421 28.0509 96° East  Level Estimated
04:28AM 41.0317 28.1782 96° East  Level Estimated
04:29AM 41.0211 28.3053 96° East  Level Estimated
04:30AM 41.0104 28.4325 96° East  Level Estimated
04:31AM 40.9996 28.5596 96° East  Level Estimated
04:32AM 40.9887 28.6866 96° East  Level Estimated
04:33AM 40.9776 28.8136 97° East  Level Estimated
04:34AM 40.9769 28.8211 97° East  Level Estimated
04:35AM 40.9769 28.8211 21° North  Level Estimated
04:36AM 40.9769 28.8211 21° North  Level Estimated
04:37AM 40.9769 28.8211 21° North  Level Estimated
04:38AM 40.9769 28.8211 21° North  Level Estimated
04:39AM 40.9769 28.8211 21° North  Level Estimated
04:40AM 40.9769 28.8211 21° North  Level Estimated
04:41AM 40.9769 28.8211 21° North  Level Estimated
04:42AM 40.9769 28.8211 21° North  Level Estimated
04:43AM 40.9769 28.8211 21° North  Level Estimated
04:44AM 40.9769 28.8211 21° North  Level Estimated
04:45AM 40.9769 28.8211 21° North  Level Estimated
04:46AM 40.9769 28.8211 21° North  Level Estimated
04:47AM 40.9769 28.8211 21° North  Level Estimated
04:48AM 40.9769 28.8211 21° North  Level Estimated
04:49AM 40.9769 28.8211 21° North  Level Estimated